Latexo, Texas
Current Conditions -  °F | °C
As of 8:55 AM on Wednesday 22 Oct 2014 (Local Time) from KDKR Reporting Station
Haze Haze  
Wind Chill: 68°   Ceiling: Unl
Heat Index: 68°   Visibility: 4mi
Dew Point: 66°   Wind: 3mph
Humidity: 94%   Direction: 50°NE
Pressure: 30.16"   Gusts: NA
Location:  31.4°N, 95.47°W
Report Text: KDKR 221355Z AUTO 05003KT 4SM BR CLR 20/19 A3016 RMK AO2
Loading
Personal Weather Stations






























Interactive Weather Map
Tropical Storm Tracking
New forecast layout! Learn more

10-Day Weather Forecast

Advertisements
Track Severe Weather on mobile